Los Angeles International Airport
KLAX : now visible

Airfield :











YOU CAN JOIN US ON...

 
LOGIN :

Register | Disclaimer

   EN    FR    IT 

 









Legend :    VFR   Marginal VFR   IFR   Intensive IFR   Very Intensive IFR
Visi :
Ceiling :
>= 8 km
>= 3000ft
5 to 8 km
1000 to 3000 ft
1500m to 5 km
500 to 1000 ft
800 to 1500m
200 to 500 ft
< 800m
< 200 ft
Symbols :   Thunderstorms  Fog  Heavy snow  Heavy precipitations  Wind > 20 kt







- Airport Elevation : 125 ft
- IATA code : LAX


KLAX - Los Angeles International

CURRENT METAR :
  • 160953Z 35004KT 10SM FEW029 10/07 A3009 RMK AO2 SLP188 T01000067

EXPIRED METARs :
  • 160853Z 27014KT 10SM SCT029 SCT080 11/06 A3010 RMK AO2 SLP190 60002 T01110061 55001
  • 160753Z 27010KT 10SM SCT025 BKN080 11/09 A3009 RMK AO2 RAB19E27 SLP187 P0000 T01110089 401560100
  • 160653Z 31006KT 10SM SCT024 BKN075 BKN100 11/08 A3009 RMK AO2 PK WND 27027/0625 RAB28E36 SLP189 P0002 T01110083

TAF KLAX
Valid from the 16 at 09:00 until the 17 at 12:00 UTC


160855Z 1609/1712 28010KT P6SM VCSH BKN050
FM161700 28015KT P6SM VCSH BKN050
FM162100 27018G28KT P6SM VCSH BKN050
FM170300 28010KT P6SM BKN050
KZLA FIR / North America



MET'MAP, your aeronautical weather chart ! - Copyright ORBIFLY December 2007 - Disclaimer

ORBIFLY MET'MAP TEAM :

Programming & Development : Alexandra Zaïnal
Concept & Development : Baudouin d'Aumeries
Co-Development & Prog : Marc-Olivier Méhu
Technical & hardware support : Manuel Goepfert

Contact : metmap@orbifly.com




SOURCES & CREDITS :

   NOAA       Earth
Advisory